Time;durP1;ratioP1;P1;durP2;ratioP2;P2;SDS_P1;SDS_P2;PMS_P1;PMS_P2;Temp;Humidity;BMP_temperature;BMP_pressure;BME280_temperature;BME280_humidity;BME280_pressure;Samples;Min_cycle;Max_cycle;Signal;HPM_P1;HPM_P2
2024/03/10 00:00:57;;;;;;;50.08;35.22;;;;;;;5.57;100.00;135920.09;5053104;28;20028;-75
2024/03/10 00:03:22;;;;;;;51.75;35.60;;;;;;;5.24;100.00;135886.50;5069869;28;20117;-73
2024/03/10 00:05:48;;;;;;;50.75;35.22;;;;;;;5.78;100.00;135988.56;5071435;28;20525;-72
2024/03/10 00:08:14;;;;;;;52.90;35.53;;;;;;;5.42;100.00;135916.34;5069891;28;20469;-74
2024/03/10 00:10:41;;;;;;;50.70;35.67;;;;;;;5.24;100.00;135899.22;5071067;28;20312;-79
2024/03/10 00:13:07;;;;;;;55.85;34.90;;;;;;;5.34;100.00;135927.22;5071052;28;20028;-74
2024/03/10 00:15:33;;;;;;;50.42;36.05;;;;;;;5.98;100.00;136007.44;5052723;28;20058;-73
2024/03/10 00:17:58;;;;;;;52.20;35.97;;;;;;;5.38;100.00;135947.94;5063043;28;20107;-71
2024/03/10 00:20:24;;;;;;;53.13;35.92;;;;;;;5.67;100.00;135999.03;5070983;28;20122;-72
2024/03/10 00:22:50;;;;;;;54.72;37.70;;;;;;;5.67;100.00;136028.19;5071196;28;20047;-71
2024/03/10 00:25:15;;;;;;;55.53;38.22;;;;;;;5.95;100.00;136040.22;5050923;28;20047;-71
2024/03/10 00:27:41;;;;;;;54.08;37.53;;;;;;;5.18;100.00;135931.31;5052083;28;20041;-72
2024/03/10 00:30:09;;;;;;;55.72;38.15;;;;;;;5.66;100.00;136010.66;5052561;28;20021;-71
2024/03/10 00:32:37;;;;;;;55.92;37.38;;;;;;;5.33;100.00;135926.34;5070024;28;20029;-72
2024/03/10 00:35:07;;;;;;;56.45;37.45;;;;;;;6.22;100.00;136169.75;5068882;28;20024;-71
2024/03/10 00:37:32;;;;;;;54.13;37.40;;;;;;;6.39;100.00;136188.28;5070881;28;20033;-71
2024/03/10 00:39:58;;;;;;;58.90;40.28;;;;;;;5.33;100.00;135988.56;5052408;28;20036;-72
2024/03/10 00:42:23;;;;;;;55.72;37.65;;;;;;;6.21;100.00;136136.84;5068939;28;20028;-75
2024/03/10 00:44:50;;;;;;;58.65;38.45;;;;;;;6.40;100.00;136204.47;5061159;28;20115;-72
2024/03/10 00:47:16;;;;;;;60.35;38.22;;;;;;;6.55;100.00;136157.22;5071151;28;20126;-75
2024/03/10 00:49:41;;;;;;;57.28;38.50;;;;;;;6.30;100.00;136193.19;5070267;28;20495;-72
2024/03/10 00:52:07;;;;;;;57.13;38.08;;;;;;;6.34;100.00;136104.00;5052026;28;20035;-71
2024/03/10 00:54:39;;;;;;;58.58;38.15;;;;;;;6.20;100.00;136155.00;5070579;28;20028;-72
2024/03/10 00:57:04;;;;;;;;;;;;;;;6.84;100.00;136269.56;5070470;28;20047;-72
2024/03/10 00:59:30;;;;;;;54.33;36.88;;;;;;;6.44;100.00;136129.47;5070612;28;19920;-72
2024/03/10 01:01:55;;;;;;;55.95;38.22;;;;;;;6.20;100.00;136175.38;5069913;28;20116;-72
2024/03/10 01:04:21;;;;;;;53.55;37.72;;;;;;;5.72;100.00;136000.31;5070338;28;20029;-72
2024/03/10 01:06:47;;;;;;;55.88;38.17;;;;;;;5.89;100.00;136059.63;5070239;28;20032;-72
2024/03/10 01:09:15;;;;;;;56.65;37.58;;;;;;;6.32;100.00;136173.38;5069667;28;20028;-72
2024/03/10 01:11:42;;;;;;;52.85;36.88;;;;;;;5.83;100.00;136061.13;5068110;28;20031;-71
2024/03/10 01:14:10;;;;;;;54.50;36.35;;;;;;;4.76;100.00;135636.81;5051931;28;20111;-71
2024/03/10 01:16:40;;;;;;;53.75;34.90;;;;;;;6.36;100.00;136100.94;5051799;28;20498;-71
2024/03/10 01:19:09;;;;;;;49.63;34.65;;;;;;;6.39;100.00;136119.44;5052286;28;20013;-73
2024/03/10 01:21:35;;;;;;;54.60;35.58;;;;;;;6.46;100.00;136144.25;5060426;28;20112;-71
2024/03/10 01:24:00;;;;;;;52.72;35.00;;;;;;;6.34;100.00;136148.81;5069919;28;20094;-73
2024/03/10 01:26:26;;;;;;;48.95;32.40;;;;;;;6.31;100.00;136140.53;5051330;28;20029;-72
2024/03/10 01:28:51;;;;;;;51.97;34.38;;;;;;;5.88;100.00;135997.31;5051736;28;20032;-72
2024/03/10 01:31:17;;;;;;;49.58;35.05;;;;;;;6.29;100.00;136125.75;5069460;28;20119;-72
2024/03/10 01:33:42;;;;;;;47.47;34.33;;;;;;;6.09;100.00;136025.00;5069120;28;20040;-73
2024/03/10 01:36:08;;;;;;;53.63;36.20;;;;;;;6.63;100.00;136092.75;5069211;28;20115;-72
2024/03/10 01:38:33;;;;;;;51.00;34.50;;;;;;;6.16;100.00;136055.16;5051223;28;20048;-72
2024/03/10 01:40:59;;;;;;;48.42;34.05;;;;;;;6.42;100.00;136128.88;5069025;28;20419;-72
2024/03/10 01:43:25;;;;;;;47.38;33.85;;;;;;;5.94;100.00;136013.59;5068877;28;20487;-72
2024/03/10 01:46:06;;;;;;;49.17;33.65;;;;;;;6.02;100.00;136007.84;5069173;28;20093;-72
2024/03/10 01:48:37;;;;;;;45.75;32.20;;;;;;;6.32;100.00;136066.28;5068329;28;20024;-71
2024/03/10 01:51:04;;;;;;;49.30;34.10;;;;;;;6.03;100.00;135959.13;5059867;28;20032;-74
2024/03/10 01:53:31;;;;;;;51.38;34.05;;;;;;;6.15;100.00;135910.09;5068640;28;20032;-73
2024/03/10 01:55:59;;;;;;;50.13;34.55;;;;;;;5.97;100.00;136002.63;5069007;28;20056;-73
2024/03/10 01:58:26;;;;;;;47.90;34.97;;;;;;;5.38;100.00;135874.09;5067344;28;20028;-72
2024/03/10 02:00:52;;;;;;;47.92;33.58;;;;;;;6.06;100.00;135963.47;5068792;28;20028;-71
2024/03/10 02:03:18;;;;;;;46.25;33.70;;;;;;;6.10;100.00;136001.78;5067519;28;20047;-72
2024/03/10 02:05:46;;;;;;;49.25;34.53;;;;;;;5.24;100.00;135813.84;5067262;28;20054;-72
2024/03/10 02:08:14;;;;;;;51.35;34.97;;;;;;;6.06;100.00;136014.47;5067375;28;20078;-72
2024/03/10 02:10:48;;;;;;;48.70;34.30;;;;;;;5.93;100.00;135997.44;5069702;28;20029;-71
2024/03/10 02:13:17;;;;;;;51.83;34.30;;;;;;;5.28;100.00;135862.56;5076036;28;20043;-72
2024/03/10 02:15:43;;;;;;;49.47;34.58;;;;;;;5.59;100.00;135889.00;5067792;28;20534;-72
2024/03/10 02:18:10;;;;;;;49.35;33.58;;;;;;;6.33;100.00;136012.47;5067509;28;20020;-73
2024/03/10 02:20:37;;;;;;;52.17;35.13;;;;;;;5.85;100.00;135970.06;5050397;28;20028;-73
2024/03/10 02:23:04;;;;;;;48.33;33.65;;;;;;;6.29;100.00;136059.44;5069031;28;20024;-73
2024/03/10 02:25:35;;;;;;;48.20;33.47;;;;;;;6.37;100.00;136113.44;5069336;28;20090;-74
2024/03/10 02:28:20;;;;;;;47.83;33.38;;;;;;;6.25;100.00;136093.63;5068690;28;20028;-73
2024/03/10 02:47:11;;;;;;;49.08;34.47;;;;;;;6.02;100.00;136071.56;5067861;28;20040;-72
2024/03/10 02:47:17;;;;;;;43.90;29.55;;;;;;;5.71;100.00;135896.09;5068462;28;20043;-78
2024/03/10 02:49:43;;;;;;;49.00;32.13;;;;;;;5.21;100.00;135836.34;5072922;28;20040;-71
2024/03/10 02:52:09;;;;;;;44.65;31.63;;;;;;;5.78;100.00;135912.13;5072724;28;20024;-71
2024/03/10 02:54:35;;;;;;;47.92;31.45;;;;;;;5.08;100.00;135760.81;5071039;28;20029;-72
2024/03/10 02:57:02;;;;;;;50.10;31.88;;;;;;;5.82;100.00;135978.44;5059059;28;20045;-72
2024/03/10 02:59:31;;;;;;;46.22;32.13;;;;;;;5.86;100.00;135986.53;5038979;28;20522;-78
2024/03/10 03:01:57;;;;;;;49.55;32.75;;;;;;;4.96;100.00;135805.78;5036918;28;20041;-71
2024/03/10 03:04:26;;;;;;;46.47;31.42;;;;;;;5.93;100.00;136006.22;5039505;28;20033;-72
2024/03/10 03:06:52;;;;;;;52.65;31.85;;;;;;;5.58;100.00;135915.91;5058523;28;20504;-73
2024/03/10 03:09:20;;;;;;;48.85;31.00;;;;;;;6.23;100.00;136076.28;5044334;28;20108;-72
2024/03/10 03:11:48;;;;;;;46.75;31.10;;;;;;;6.02;100.00;136006.41;5044010;28;20025;-71
2024/03/10 03:14:14;;;;;;;46.10;31.67;;;;;;;5.45;100.00;135938.53;5056202;28;20122;-72
2024/03/10 03:16:42;;;;;;;49.42;32.80;;;;;;;6.08;100.00;136050.75;5041430;28;20067;-80
2024/03/10 03:19:13;;;;;;;51.33;33.70;;;;;;;6.01;100.00;136071.81;5037124;28;20037;-73
2024/03/10 03:21:39;;;;;;;49.78;33.25;;;;;;;5.80;100.00;136069.56;5043610;28;20018;-72
2024/03/10 03:24:08;;;;;;;48.53;32.30;;;;;;;5.86;100.00;136008.03;5039484;28;20041;-70
2024/03/10 03:26:34;;;;;;;51.05;32.70;;;;;;;5.25;100.00;135904.03;5044215;28;20033;-70
2024/03/10 03:29:01;;;;;;;44.30;31.05;;;;;;;5.24;100.00;135887.66;5039453;28;20021;-72
2024/03/10 03:31:26;;;;;;;48.72;30.65;;;;;;;5.54;100.00;135875.06;5042691;28;20059;-70
2024/03/10 03:33:52;;;;;;;47.58;31.92;;;;;;;6.19;100.00;136036.53;5041075;28;20447;-72
2024/03/10 03:36:19;;;;;;;51.78;31.48;;;;;;;6.19;100.00;136030.28;5039060;28;20041;-71
2024/03/10 03:38:44;;;;;;;50.08;31.73;;;;;;;5.90;100.00;136001.88;5040875;28;20461;-71
2024/03/10 03:41:11;;;;;;;50.33;31.92;;;;;;;5.93;100.00;135997.44;5038442;28;20037;-71
2024/03/10 03:43:36;;;;;;;50.38;31.95;;;;;;;5.42;100.00;135874.22;5037037;28;20127;-73
2024/03/10 03:46:04;;;;;;;43.25;30.00;;;;;;;5.67;100.00;135951.78;5035342;28;20041;-72
2024/03/10 03:48:30;;;;;;;48.38;31.65;;;;;;;5.89;100.00;136004.72;5040191;28;20061;-70
2024/03/10 03:50:55;;;;;;;45.15;31.67;;;;;;;5.62;100.00;135851.19;5038753;28;20056;-72
2024/03/10 03:53:21;;;;;;;48.88;31.52;;;;;;;6.18;100.00;136012.72;5044359;28;20538;-71
2024/03/10 03:55:46;;;;;;;50.35;31.88;;;;;;;5.95;100.00;135985.31;5041396;28;20061;-70
2024/03/10 03:58:12;;;;;;;45.33;30.75;;;;;;;5.46;100.00;135849.13;5066634;28;20033;-70
2024/03/10 04:00:37;;;;;;;53.53;32.50;;;;;;;5.59;100.00;135934.84;5048712;28;20037;-70
2024/03/10 04:03:03;;;;;;;46.88;30.25;;;;;;;5.51;100.00;135842.69;5051079;28;20400;-71
2024/03/10 04:05:29;;;;;;;47.58;31.20;;;;;;;5.17;100.00;135828.34;5064877;28;20032;-72
2024/03/10 04:07:54;;;;;;;48.10;30.30;;;;;;;6.15;100.00;135902.47;5049838;28;20033;-71
2024/03/10 04:10:20;;;;;;;48.38;30.65;;;;;;;6.18;100.00;135929.69;5050135;28;20086;-72
2024/03/10 04:12:46;;;;;;;47.60;30.35;;;;;;;5.75;100.00;135842.69;5049462;28;20123;-73
2024/03/10 04:15:11;;;;;;;54.25;31.05;;;;;;;6.27;100.00;135954.25;5049147;28;20044;-71
2024/03/10 04:17:36;;;;;;;45.30;30.20;;;;;;;6.23;100.00;135918.22;5049360;28;20116;-72
2024/03/10 04:20:02;;;;;;;48.17;30.73;;;;;;;5.61;100.00;135846.34;5051451;28;20044;-74
2024/03/10 04:22:28;;;;;;;50.42;31.75;;;;;;;6.04;100.00;135974.19;5049648;28;20463;-73
2024/03/10 04:24:54;;;;;;;52.13;32.70;;;;;;;5.93;100.00;135977.03;5051317;28;20055;-72
2024/03/10 04:27:20;;;;;;;53.28;33.22;;;;;;;5.39;100.00;135826.59;5049401;28;20506;-72
2024/03/10 04:29:46;;;;;;;48.88;29.50;;;;;;;5.72;100.00;135946.81;5050298;28;20056;-72
2024/03/10 04:32:12;;;;;;;49.53;33.05;;;;;;;5.82;100.00;135875.41;5050297;28;20028;-71
2024/03/10 04:34:39;;;;;;;54.28;35.13;;;;;;;5.74;100.00;135793.41;5049213;28;20033;-71
2024/03/10 04:37:08;;;;;;;55.47;34.13;;;;;;;5.85;100.00;135810.94;5050525;28;20514;-71
2024/03/10 04:39:34;;;;;;;57.28;34.92;;;;;;;5.41;100.00;135827.50;5050928;28;20028;-71
2024/03/10 04:42:00;;;;;;;53.55;33.08;;;;;;;5.24;100.00;135722.19;5050619;28;20411;-73
2024/03/10 04:44:25;;;;;;;56.33;33.85;;;;;;;5.64;100.00;135871.06;5049056;28;20037;-72
2024/03/10 04:46:51;;;;;;;52.92;33.60;;;;;;;5.34;100.00;135735.09;5050871;28;20025;-72
2024/03/10 04:49:17;;;;;;;57.65;33.90;;;;;;;5.86;100.00;135870.41;5048920;28;20108;-73
2024/03/10 04:51:43;;;;;;;51.85;32.95;;;;;;;5.36;100.00;135677.19;5049677;28;20033;-71
2024/03/10 04:54:09;;;;;;;51.35;32.83;;;;;;;5.85;100.00;135750.94;5049785;28;20135;-71
2024/03/10 04:56:35;;;;;;;52.83;33.60;;;;;;;6.22;100.00;135834.31;5063049;28;20041;-74
2024/03/10 04:59:02;;;;;;;51.80;32.88;;;;;;;5.77;100.00;135753.00;5067570;28;20502;-72
2024/03/10 05:01:28;;;;;;;51.58;31.73;;;;;;;5.27;100.00;135790.13;5069336;28;20089;-72
2024/03/10 05:03:53;;;;;;;51.95;32.42;;;;;;;5.64;100.00;135717.06;5070385;28;20025;-72
2024/03/10 05:06:19;;;;;;;51.30;30.38;;;;;;;5.63;100.00;135834.47;5070141;28;20032;-72
2024/03/10 05:08:45;;;;;;;48.03;30.50;;;;;;;6.15;100.00;135780.09;5051664;28;20032;-72
2024/03/10 05:11:11;;;;;;;52.97;33.00;;;;;;;5.93;100.00;135850.75;5069203;28;20131;-72
2024/03/10 05:13:37;;;;;;;51.78;32.35;;;;;;;6.02;100.00;135865.13;5052381;28;20588;-72
2024/03/10 05:16:03;;;;;;;49.58;31.90;;;;;;;5.55;100.00;135730.75;5069811;28;20036;-73
2024/03/10 05:18:28;;;;;;;49.97;32.70;;;;;;;5.91;100.00;135875.63;5070136;28;20093;-73
2024/03/10 05:20:54;;;;;;;52.03;31.60;;;;;;;6.17;100.00;135835.66;5070215;28;20033;-73
2024/03/10 05:23:19;;;;;;;47.65;30.98;;;;;;;6.32;100.00;135854.59;5051415;28;20024;-78
2024/03/10 05:25:44;;;;;;;47.45;32.15;;;;;;;6.21;100.00;135849.88;5054478;28;20033;-72
2024/03/10 05:28:10;;;;;;;54.95;34.78;;;;;;;6.54;100.00;135910.00;5068827;28;20137;-72
2024/03/10 05:30:37;;;;;;;50.88;34.42;;;;;;;6.28;100.00;135874.97;5064107;28;20524;-73
2024/03/10 05:33:05;;;;;;;50.67;32.50;;;;;;;6.29;100.00;135891.13;5069273;28;20033;-73
2024/03/10 05:35:31;;;;;;;48.08;31.80;;;;;;;6.06;100.00;135838.56;5051510;28;20645;-72
2024/03/10 05:37:56;;;;;;;48.30;32.25;;;;;;;6.41;100.00;135928.75;5056642;28;20028;-72
2024/03/10 05:40:22;;;;;;;50.63;32.42;;;;;;;6.52;100.00;135950.19;5050108;28;20586;-71
2024/03/10 05:42:48;;;;;;;49.22;33.33;;;;;;;6.63;100.00;135920.38;5068998;28;20040;-71
2024/03/10 05:45:13;;;;;;;51.75;33.67;;;;;;;5.96;100.00;135820.81;5051103;28;20040;-71
2024/03/10 05:47:39;;;;;;;51.95;33.10;;;;;;;6.18;100.00;135873.59;5050892;28;20085;-73
2024/03/10 05:50:06;;;;;;;48.78;33.03;;;;;;;6.61;100.00;135964.28;5049919;28;20111;-71
2024/03/10 05:52:32;;;;;;;50.47;32.17;;;;;;;6.82;100.00;135960.09;5067818;28;20024;-71
2024/03/10 05:54:57;;;;;;;46.10;30.10;;;;;;;6.99;100.00;135988.78;5068263;28;20040;-71
2024/03/10 05:57:23;;;;;;;45.67;31.35;;;;;;;6.74;100.00;136029.72;5067051;28;20048;-71
2024/03/10 05:59:48;;;;;;;46.63;31.70;;;;;;;6.22;100.00;135979.63;5048982;28;20109;-72
2024/03/10 06:02:14;;;;;;;48.85;33.78;;;;;;;6.74;100.00;136028.56;5066191;28;20035;-73
2024/03/10 06:04:43;;;;;;;49.78;34.17;;;;;;;6.27;100.00;135967.00;5049158;28;20039;-71
2024/03/10 06:07:10;;;;;;;52.70;33.38;;;;;;;6.55;100.00;135942.91;5068574;28;20124;-72
2024/03/10 06:09:36;;;;;;;52.28;34.05;;;;;;;6.32;100.00;135993.75;5071719;28;20114;-71
2024/03/10 06:12:02;;;;;;;50.25;34.45;;;;;;;5.72;100.00;135893.28;5070071;28;20032;-72
2024/03/10 06:14:29;;;;;;;54.33;36.58;;;;;;;6.70;100.00;136012.94;5066685;28;20043;-71
2024/03/10 06:16:56;;;;;;;54.22;36.70;;;;;;;6.77;100.00;136030.34;5066775;28;20089;-70
2024/03/10 06:27:34;;;;;;;51.55;32.75;;;;;;;7.06;100.00;136053.28;5067977;28;20043;-72
2024/03/10 06:29:59;;;;;;;51.70;34.42;;;;;;;6.50;100.00;136000.34;5066695;28;20415;-73
2024/03/10 06:32:25;;;;;;;51.10;33.47;;;;;;;7.26;100.00;135979.00;5048522;28;20028;-72
2024/03/10 06:34:51;;;;;;;50.35;32.60;;;;;;;7.39;100.00;136155.75;5049318;28;20412;-71
2024/03/10 06:37:19;;;;;;;49.67;32.95;;;;;;;7.33;100.00;136113.91;5048835;28;20025;-72
2024/03/10 06:39:45;;;;;;;47.60;30.95;;;;;;;7.14;100.00;136101.06;5051817;28;20507;-72
2024/03/10 06:42:11;;;;;;;48.67;32.47;;;;;;;6.79;100.00;136139.56;5065948;28;20063;-72
2024/03/10 06:44:37;;;;;;;51.03;35.42;;;;;;;6.77;100.00;136132.44;5067491;28;20431;-71
2024/03/10 06:47:03;;;;;;;46.25;33.50;;;;;;;7.86;100.00;136039.44;5048400;28;20033;-74
2024/03/10 06:49:29;;;;;;;52.88;33.25;;;;;;;8.00;100.00;136198.19;5048856;28;20838;-72
2024/03/10 06:51:55;;;;;;;49.75;32.90;;;;;;;8.20;100.00;136182.53;5066182;28;20116;-70
2024/03/10 06:54:20;;;;;;;48.00;32.22;;;;;;;7.65;100.00;136078.34;5067283;28;20111;-72
2024/03/10 06:56:45;;;;;;;46.10;31.70;;;;;;;8.70;100.00;136325.13;5048605;28;20044;-72
2024/03/10 06:59:12;;;;;;;46.85;32.58;;;;;;;8.61;100.00;136381.34;5067386;28;20422;-72
2024/03/10 07:01:44;;;;;;;48.78;33.97;;;;;;;8.32;100.00;136327.72;5066717;28;20025;-75
2024/03/10 07:04:14;;;;;;;48.38;32.92;;;;;;;8.22;100.00;136348.28;5065719;28;20033;-72
2024/03/10 07:06:39;;;;;;;45.53;31.83;;;;;;;8.10;100.00;136481.94;5066769;28;20107;-72
2024/03/10 07:09:09;;;;;;;44.63;31.25;;;;;;;8.04;100.00;136372.44;5048413;28;20123;-71
2024/03/10 07:11:36;;;;;;;48.80;32.28;;;;;;;7.98;100.00;136358.69;5067264;28;20457;-75
2024/03/10 07:14:01;;;;;;;47.80;32.65;;;;;;;7.89;100.00;136490.06;5064923;28;20479;-76
2024/03/10 07:16:27;;;;;;;44.00;30.45;;;;;;;8.36;100.00;136494.44;5065776;28;20040;-71
2024/03/10 07:18:52;;;;;;;44.28;32.13;;;;;;;8.09;100.00;136472.00;5066453;28;20040;-71
2024/03/10 07:21:18;;;;;;;51.30;33.42;;;;;;;7.33;100.00;136459.91;5066232;28;20078;-71
2024/03/10 07:23:43;;;;;;;47.55;32.78;;;;;;;8.28;100.00;136456.72;5066696;28;20032;-73
2024/03/10 07:26:09;;;;;;;46.70;32.88;;;;;;;9.02;100.00;136519.06;5066617;28;20056;-74
2024/03/10 07:28:35;;;;;;;52.30;33.42;;;;;;;8.78;100.00;136575.31;5066407;28;20764;-73
2024/03/10 07:31:04;;;;;;;48.65;31.70;;;;;;;8.68;100.00;136620.13;5048524;28;20067;-72
2024/03/10 07:33:30;;;;;;;54.80;37.97;;;;;;;8.25;100.00;136694.34;5064653;28;20031;-73
2024/03/10 07:35:56;;;;;;;46.90;32.47;;;;;;;8.17;100.00;136640.13;5057958;28;20429;-75
2024/03/10 07:38:21;;;;;;;46.67;30.92;;;;;;;7.87;100.00;136455.97;5070746;28;20033;-74
2024/03/10 07:40:47;;;;;;;45.47;31.88;;;;;;;8.81;100.00;136575.94;5070299;28;20115;-72
2024/03/10 07:43:15;;;;;;;46.58;32.58;;;;;;;9.10;100.00;136629.63;5069679;28;20105;-74
2024/03/10 07:45:42;;;;;;;47.85;33.03;;;;;;;8.35;100.00;136686.63;5057102;28;20178;-73
2024/03/10 07:48:07;;;;;;;49.17;36.05;;;;;;;8.60;100.00;136734.91;5057323;28;20150;-73
2024/03/10 07:50:35;;;;;;;49.85;31.65;;;;;;;8.94;100.00;136754.31;5052633;28;20573;-72
2024/03/10 07:53:01;;;;;;;45.08;32.75;;;;;;;9.29;100.00;136752.69;5070612;28;20028;-72
2024/03/10 07:55:33;;;;;;;42.80;31.83;;;;;;;9.12;100.00;136798.22;5070477;28;20077;-73
2024/03/10 07:57:59;;;;;;;46.88;31.55;;;;;;;8.96;100.00;136797.34;5052500;28;20036;-72
2024/03/10 08:00:26;;;;;;;49.95;34.85;;;;;;;8.80;100.00;136727.31;5071177;28;20097;-77
2024/03/10 08:02:53;;;;;;;51.83;36.28;;;;;;;9.76;100.00;136949.19;5071564;28;20041;-72
2024/03/10 08:05:19;;;;;;;46.50;33.35;;;;;;;9.36;100.00;137061.00;5067017;28;20035;-73
2024/03/10 08:07:46;;;;;;;52.30;37.15;;;;;;;9.33;100.00;136890.03;5069147;28;20025;-74
2024/03/10 08:10:12;;;;;;;46.35;31.88;;;;;;;9.00;100.00;137016.63;5070700;28;20032;-72
2024/03/10 08:12:39;;;;;;;44.50;32.10;;;;;;;8.58;100.00;136982.63;5070085;28;20207;-73
2024/03/10 08:15:09;;;;;;;45.78;32.65;;;;;;;9.34;100.00;137038.44;5052065;28;20037;-72
2024/03/10 08:17:35;;;;;;;42.83;31.85;;;;;;;8.60;100.00;137003.75;5071240;28;20584;-72
2024/03/10 08:20:01;;;;;;;47.33;32.85;;;;;;;8.78;100.00;136964.63;5070084;28;20032;-74
2024/03/10 08:22:26;;;;;;;43.88;31.52;;;;;;;9.31;100.00;137086.50;5070016;28;20419;-75
2024/03/10 08:24:52;;;;;;;44.40;32.47;;;;;;;8.85;100.00;136989.81;5069587;28;20491;-73
2024/03/10 08:27:17;;;;;;;44.78;32.67;;;;;;;9.66;100.00;137058.19;5054093;28;20028;-74
2024/03/10 08:29:43;;;;;;;45.75;32.22;;;;;;;9.74;100.00;137183.19;5069635;28;20384;-73
2024/03/10 08:32:09;;;;;;;83.22;35.58;;;;;;;9.65;100.00;137117.44;5050941;28;20024;-72
2024/03/10 08:34:35;;;;;;;43.60;32.85;;;;;;;9.78;100.00;137190.97;5050921;28;20035;-73
2024/03/10 08:37:01;;;;;;;55.58;35.65;;;;;;;8.79;100.00;137104.09;5070579;28;20524;-75
2024/03/10 08:39:28;;;;;;;62.25;43.50;;;;;;;8.97;100.00;136922.63;5050022;28;20495;-72
2024/03/10 08:41:53;;;;;;;48.67;35.00;;;;;;;9.46;100.00;137130.16;5050634;28;20039;-73
2024/03/10 08:44:19;;;;;;;45.22;34.33;;;;;;;9.89;100.00;137171.50;5069952;28;20032;-73
2024/03/10 08:46:44;;;;;;;45.72;33.60;;;;;;;8.84;100.00;136991.22;5067742;28;20036;-73
2024/03/10 08:49:11;;;;;;;48.15;34.65;;;;;;;9.08;100.00;137125.88;5069558;28;20157;-72
2024/03/10 08:51:37;;;;;;;52.25;34.88;;;;;;;8.83;100.00;137117.03;5069417;28;20078;-73
2024/03/10 08:54:07;;;;;;;57.00;34.33;;;;;;;8.99;100.00;137098.91;5069364;28;20119;-73
2024/03/10 08:56:40;;;;;;;51.58;35.30;;;;;;;9.37;100.00;137118.28;5067640;28;20153;-73
2024/03/10 08:59:11;;;;;;;53.90;38.53;;;;;;;10.32;100.00;137198.59;5070227;28;20029;-73
2024/03/10 09:01:40;;;;;;;50.58;35.00;;;;;;;10.41;100.00;137310.38;5069621;28;20074;-72
2024/03/10 09:04:07;;;;;;;54.33;35.53;;;;;;;10.26;100.00;137298.91;5068960;28;20036;-72
2024/03/10 09:06:34;;;;;;;49.55;33.58;;;;;;;10.25;100.00;137321.16;5052312;28;20028;-74
2024/03/10 09:09:00;;;;;;;52.40;33.47;;;;;;;10.13;100.00;137235.63;5068770;28;20044;-73
2024/03/10 09:11:25;;;;;;;53.40;34.47;;;;;;;10.38;100.00;137313.72;5050958;28;20036;-74
2024/03/10 09:13:51;;;;;;;51.85;32.78;;;;;;;10.51;100.00;137277.13;5069714;28;20048;-73
2024/03/10 09:16:17;;;;;;;58.80;32.88;;;;;;;9.98;100.00;137180.50;5051949;28;20077;-73
2024/03/10 09:18:43;;;;;;;51.55;33.20;;;;;;;10.98;100.00;137400.75;5061514;28;20482;-73
2024/03/10 09:21:08;;;;;;;53.53;36.58;;;;;;;10.32;100.00;137298.72;5068921;28;20028;-73
2024/03/10 09:23:36;;;;;;;56.55;37.15;;;;;;;10.57;100.00;137375.72;5051892;28;20468;-72
2024/03/10 09:26:03;;;;;;;46.30;30.63;;;;;;;9.55;100.00;137338.06;5069002;28;20028;-74
2024/03/10 09:28:28;;;;;;;48.53;30.63;;;;;;;10.16;100.00;137226.00;5068019;28;20063;-74
2024/03/10 09:30:57;;;;;;;44.53;30.38;;;;;;;10.39;100.00;137317.44;5069299;28;20470;-74
2024/03/10 09:33:23;;;;;;;43.53;28.48;;;;;;;11.12;100.00;137373.84;5069863;28;20028;-79
2024/03/10 09:35:52;;;;;;;44.20;28.95;;;;;;;11.04;100.00;137427.41;5069865;28;20404;-74
2024/03/10 09:38:17;;;;;;;43.25;27.35;;;;;;;10.58;100.00;137334.38;5070153;28;20456;-73
2024/03/10 09:40:45;;;;;;;41.15;28.20;;;;;;;9.47;100.00;137260.66;5067449;28;20127;-73
2024/03/10 09:43:11;;;;;;;43.75;29.55;;;;;;;10.37;100.00;137247.22;5057669;28;20099;-73
2024/03/10 09:45:43;;;;;;;38.80;28.27;;;;;;;10.64;100.00;137362.16;5068777;28;20116;-73
2024/03/10 09:48:09;;;;;;;41.83;30.08;;;;;;;10.46;100.00;137328.41;5051536;28;20068;-73
2024/03/10 09:50:40;;;;;;;45.63;31.33;;;;;;;9.95;100.00;137246.88;5068013;28;20020;-73
2024/03/10 09:53:08;;;;;;;45.00;30.27;;;;;;;10.81;100.00;137299.94;5069038;28;20062;-73
2024/03/10 09:55:34;;;;;;;65.97;41.50;;;;;;;11.10;100.00;137379.53;5068449;28;20052;-73
2024/03/10 09:58:06;;;;;;;43.83;31.25;;;;;;;10.67;100.00;137288.25;5069443;28;20028;-73
2024/03/10 10:00:33;;;;;;;53.78;34.58;;;;;;;10.66;100.00;137288.50;5069526;28;20116;-73
2024/03/10 10:03:01;;;;;;;48.40;32.13;;;;;;;10.80;100.00;137370.72;5069050;28;20452;-74
2024/03/10 10:05:29;;;;;;;44.58;31.85;;;;;;;11.12;100.00;137337.84;5068643;28;20032;-72
2024/03/10 10:07:58;;;;;;;47.30;31.65;;;;;;;11.03;100.00;137377.41;5069277;28;20029;-73
2024/03/10 10:10:26;;;;;;;48.20;32.25;;;;;;;11.71;100.00;137403.03;5069345;28;20031;-72
2024/03/10 10:12:53;;;;;;;46.03;30.90;;;;;;;11.86;100.00;137449.03;5069360;28;20032;-73
2024/03/10 10:15:22;;;;;;;46.95;33.55;;;;;;;11.03;100.00;137324.88;5071808;28;20077;-76
2024/03/10 10:17:58;;;;;;;46.63;32.80;;;;;;;11.86;100.00;137485.09;5072996;28;20475;-81
2024/03/10 10:20:28;;;;;;;48.05;32.92;;;;;;;11.50;100.00;137398.44;5052160;28;20039;-72
2024/03/10 10:23:00;;;;;;;52.22;33.08;;;;;;;11.22;100.00;137368.56;5066832;28;20052;-73
2024/03/10 10:25:27;;;;;;;52.33;34.03;;;;;;;11.96;100.00;137559.59;5051171;28;20047;-72
2024/03/10 10:27:54;;;;;;;50.33;35.58;;;;;;;11.88;100.00;137657.06;5050913;28;20125;-71
2024/03/10 10:30:28;;;;;;;42.90;30.10;;;;;;;11.49;100.00;137599.41;5066532;28;20035;-71
2024/03/10 10:33:08;;;;;;;44.08;31.17;;;;;;;12.13;100.00;137765.03;5065949;28;20032;-73
2024/03/10 10:35:38;;;;;;;38.67;28.10;;;;;;;11.88;100.00;137842.44;5056491;28;20052;-73
2024/03/10 10:38:11;;;;;;;41.67;28.48;;;;;;;12.11;100.00;137957.34;5068796;28;20058;-73
2024/03/10 10:40:54;;;;;;;38.25;27.80;;;;;;;11.74;100.00;137971.16;5066831;28;20079;-71
2024/03/10 10:43:21;;;;;;;39.08;27.52;;;;;;;12.28;100.00;138063.91;5045815;28;20032;-71
2024/03/10 10:45:48;;;;;;;36.33;26.17;;;;;;;14.10;100.00;138358.56;5069323;28;20119;-73
2024/03/10 10:48:16;;;;;;;34.67;23.83;;;;;;;14.76;100.00;138634.03;5050597;28;20028;-72
2024/03/10 10:50:47;;;;;;;32.38;24.35;;;;;;;13.37;100.00;138412.94;5070163;28;20039;-74
2024/03/10 10:53:15;;;;;;;32.97;25.05;;;;;;;14.17;100.00;138484.47;5052657;28;20032;-73
2024/03/10 10:55:41;;;;;;;36.65;25.88;;;;;;;14.11;100.00;138270.38;5051467;28;20529;-73
2024/03/10 10:58:15;;;;;;;36.22;25.77;;;;;;;14.08;100.00;137707.84;5068396;28;20033;-74
2024/03/10 11:00:47;;;;;;;35.30;25.92;;;;;;;13.84;100.00;137076.31;5067663;28;20025;-72
2024/03/10 11:03:16;;;;;;;34.75;25.48;;;;;;;13.81;100.00;136285.91;5051690;28;20036;-72
2024/03/10 11:06:08;;;;;;;34.78;27.13;;;;;;;14.33;100.00;135413.69;5069961;28;20048;-74
2024/03/10 11:08:40;;;;;;;34.15;25.25;;;;;;;13.98;100.00;134167.66;5070181;28;20024;-72
2024/03/10 11:11:06;;;;;;;35.22;25.45;;;;;;;13.59;100.00;133547.44;5069182;28;20041;-75
2024/03/10 11:13:43;;;;;;;36.72;27.48;;;;;;;14.68;100.00;133510.72;5071433;28;20123;-73
2024/03/10 11:16:23;;;;;;;33.40;25.23;;;;;;;14.10;100.00;132697.53;5069896;28;20036;-75
2024/03/10 11:18:49;;;;;;;28.20;21.67;;;;;;;13.99;100.00;132035.94;5072266;28;20024;-74
2024/03/10 11:21:22;;;;;;;25.05;20.35;;;;;;;14.48;100.00;130954.09;5073753;28;20029;-74
2024/03/10 11:23:50;;;;;;;29.08;21.38;;;;;;;14.12;100.00;129936.63;5073005;28;20031;-73
2024/03/10 11:26:20;;;;;;;28.45;22.77;;;;;;;13.67;100.00;129247.53;5054642;28;20036;-73
2024/03/10 11:28:54;;;;;;;31.00;24.08;;;;;;;14.25;100.00;128752.81;5072222;28;20052;-74